sensor_id;sensor_type;location;lat;lon;timestamp;P1;durP1;ratioP1;P2;durP2;ratioP2
7607;SDS011;3845;48.120;11.534;2022-12-18T00:08:24;28.20;;;16.70;;
7607;SDS011;3845;48.120;11.534;2022-12-18T00:10:50;25.43;;;15.80;;
7607;SDS011;3845;48.120;11.534;2022-12-18T00:13:15;27.73;;;17.50;;
7607;SDS011;3845;48.120;11.534;2022-12-18T00:15:40;29.37;;;17.53;;
7607;SDS011;3845;48.120;11.534;2022-12-18T00:18:06;27.30;;;16.17;;
7607;SDS011;3845;48.120;11.534;2022-12-18T00:20:35;25.93;;;15.87;;
7607;SDS011;3845;48.120;11.534;2022-12-18T00:23:01;27.67;;;16.17;;
7607;SDS011;3845;48.120;11.534;2022-12-18T00:25:26;25.40;;;15.57;;
7607;SDS011;3845;48.120;11.534;2022-12-18T00:27:52;26.90;;;16.17;;
7607;SDS011;3845;48.120;11.534;2022-12-18T00:30:17;24.57;;;15.37;;
7607;SDS011;3845;48.120;11.534;2022-12-18T00:32:43;25.23;;;15.50;;
7607;SDS011;3845;48.120;11.534;2022-12-18T00:35:08;27.03;;;15.90;;
7607;SDS011;3845;48.120;11.534;2022-12-18T00:37:34;25.50;;;15.10;;
7607;SDS011;3845;48.120;11.534;2022-12-18T00:39:59;25.20;;;15.50;;
7607;SDS011;3845;48.120;11.534;2022-12-18T00:42:25;22.23;;;14.60;;
7607;SDS011;3845;48.120;11.534;2022-12-18T00:45:09;24.20;;;14.90;;
7607;SDS011;3845;48.120;11.534;2022-12-18T00:47:34;26.30;;;16.50;;
7607;SDS011;3845;48.120;11.534;2022-12-18T00:49:59;26.00;;;16.13;;
7607;SDS011;3845;48.120;11.534;2022-12-18T00:52:25;29.20;;;16.67;;
7607;SDS011;3845;48.120;11.534;2022-12-18T00:54:50;25.83;;;15.90;;
7607;SDS011;3845;48.120;11.534;2022-12-18T00:57:15;27.60;;;16.70;;
7607;SDS011;3845;48.120;11.534;2022-12-18T00:59:40;28.43;;;16.63;;
7607;SDS011;3845;48.120;11.534;2022-12-18T01:02:06;26.83;;;16.67;;
7607;SDS011;3845;48.120;11.534;2022-12-18T01:04:31;24.70;;;15.23;;
7607;SDS011;3845;48.120;11.534;2022-12-18T01:06:57;25.40;;;15.33;;
7607;SDS011;3845;48.120;11.534;2022-12-18T01:09:22;23.53;;;14.90;;
7607;SDS011;3845;48.120;11.534;2022-12-18T01:11:48;23.80;;;14.47;;
7607;SDS011;3845;48.120;11.534;2022-12-18T01:14:13;24.43;;;14.20;;
7607;SDS011;3845;48.120;11.534;2022-12-18T01:16:38;23.47;;;14.40;;
7607;SDS011;3845;48.120;11.534;2022-12-18T01:19:03;23.70;;;14.73;;
7607;SDS011;3845;48.120;11.534;2022-12-18T01:21:29;22.13;;;12.93;;
7607;SDS011;3845;48.120;11.534;2022-12-18T01:23:54;23.13;;;14.50;;
7607;SDS011;3845;48.120;11.534;2022-12-18T01:26:21;22.97;;;14.13;;
7607;SDS011;3845;48.120;11.534;2022-12-18T01:28:47;23.57;;;14.10;;
7607;SDS011;3845;48.120;11.534;2022-12-18T01:31:16;22.73;;;13.70;;
7607;SDS011;3845;48.120;11.534;2022-12-18T01:33:44;24.80;;;14.53;;
7607;SDS011;3845;48.120;11.534;2022-12-18T01:36:14;21.70;;;13.60;;
7607;SDS011;3845;48.120;11.534;2022-12-18T01:39:00;22.60;;;13.83;;
7607;SDS011;3845;48.120;11.534;2022-12-18T01:41:27;21.20;;;13.87;;
7607;SDS011;3845;48.120;11.534;2022-12-18T01:47:18;21.03;;;13.13;;
7607;SDS011;3845;48.120;11.534;2022-12-18T01:50:00;20.63;;;13.07;;
7607;SDS011;3845;48.120;11.534;2022-12-18T01:52:28;21.53;;;13.30;;
7607;SDS011;3845;48.120;11.534;2022-12-18T01:54:54;23.40;;;13.97;;
7607;SDS011;3845;48.120;11.534;2022-12-18T01:57:21;21.67;;;12.87;;
7607;SDS011;3845;48.120;11.534;2022-12-18T01:59:47;19.57;;;12.13;;
7607;SDS011;3845;48.120;11.534;2022-12-18T02:02:15;23.57;;;13.77;;
7607;SDS011;3845;48.120;11.534;2022-12-18T02:04:42;21.73;;;13.43;;
7607;SDS011;3845;48.120;11.534;2022-12-18T02:07:11;22.60;;;13.60;;
7607;SDS011;3845;48.120;11.534;2022-12-18T02:09:42;24.30;;;14.17;;
7607;SDS011;3845;48.120;11.534;2022-12-18T02:12:23;26.23;;;15.27;;
7607;SDS011;3845;48.120;11.534;2022-12-18T02:15:00;26.37;;;15.50;;
7607;SDS011;3845;48.120;11.534;2022-12-18T02:17:29;28.83;;;17.00;;
7607;SDS011;3845;48.120;11.534;2022-12-18T02:20:23;28.77;;;17.90;;
7607;SDS011;3845;48.120;11.534;2022-12-18T02:28:20;29.80;;;18.10;;
7607;SDS011;3845;48.120;11.534;2022-12-18T02:30:48;29.43;;;17.30;;
7607;SDS011;3845;48.120;11.534;2022-12-18T02:33:14;27.47;;;17.37;;
7607;SDS011;3845;48.120;11.534;2022-12-18T02:35:40;28.77;;;16.93;;
7607;SDS011;3845;48.120;11.534;2022-12-18T02:38:06;27.97;;;16.23;;
7607;SDS011;3845;48.120;11.534;2022-12-18T02:40:31;28.40;;;17.20;;
7607;SDS011;3845;48.120;11.534;2022-12-18T02:43:10;29.90;;;17.40;;
7607;SDS011;3845;48.120;11.534;2022-12-18T02:45:46;29.13;;;17.63;;
7607;SDS011;3845;48.120;11.534;2022-12-18T02:48:12;29.37;;;17.83;;
7607;SDS011;3845;48.120;11.534;2022-12-18T02:50:38;33.60;;;18.10;;
7607;SDS011;3845;48.120;11.534;2022-12-18T03:03:44;28.10;;;16.60;;
7607;SDS011;3845;48.120;11.534;2022-12-18T03:06:14;28.13;;;16.33;;
7607;SDS011;3845;48.120;11.534;2022-12-18T03:08:51;26.37;;;15.97;;
7607;SDS011;3845;48.120;11.534;2022-12-18T03:11:19;26.27;;;15.07;;
7607;SDS011;3845;48.120;11.534;2022-12-18T03:14:04;28.60;;;16.40;;
7607;SDS011;3845;48.120;11.534;2022-12-18T03:16:32;27.47;;;16.03;;
7607;SDS011;3845;48.120;11.534;2022-12-18T03:19:01;28.50;;;16.13;;
7607;SDS011;3845;48.120;11.534;2022-12-18T03:21:43;29.23;;;16.63;;
7607;SDS011;3845;48.120;11.534;2022-12-18T03:29:40;29.07;;;16.17;;
7607;SDS011;3845;48.120;11.534;2022-12-18T03:32:10;30.63;;;17.40;;
7607;SDS011;3845;48.120;11.534;2022-12-18T03:34:37;31.40;;;18.07;;
7607;SDS011;3845;48.120;11.534;2022-12-18T03:37:05;32.60;;;19.13;;
7607;SDS011;3845;48.120;11.534;2022-12-18T03:39:31;32.23;;;18.47;;
7607;SDS011;3845;48.120;11.534;2022-12-18T03:44:29;30.37;;;18.10;;
7607;SDS011;3845;48.120;11.534;2022-12-18T03:52:17;29.37;;;17.70;;
7607;SDS011;3845;48.120;11.534;2022-12-18T03:54:46;33.83;;;19.67;;
7607;SDS011;3845;48.120;11.534;2022-12-18T03:57:13;32.10;;;18.27;;
7607;SDS011;3845;48.120;11.534;2022-12-18T03:59:41;29.97;;;17.07;;
7607;SDS011;3845;48.120;11.534;2022-12-18T04:02:08;31.30;;;17.93;;
7607;SDS011;3845;48.120;11.534;2022-12-18T04:04:34;28.60;;;16.40;;
7607;SDS011;3845;48.120;11.534;2022-12-18T04:07:01;27.83;;;17.07;;
7607;SDS011;3845;48.120;11.534;2022-12-18T04:09:26;27.57;;;16.67;;
7607;SDS011;3845;48.120;11.534;2022-12-18T04:11:52;28.90;;;16.97;;
7607;SDS011;3845;48.120;11.534;2022-12-18T04:14:17;29.80;;;16.67;;
7607;SDS011;3845;48.120;11.534;2022-12-18T04:16:43;27.43;;;16.63;;
7607;SDS011;3845;48.120;11.534;2022-12-18T04:19:08;28.67;;;16.67;;
7607;SDS011;3845;48.120;11.534;2022-12-18T04:21:33;28.17;;;16.90;;
7607;SDS011;3845;48.120;11.534;2022-12-18T04:23:58;30.37;;;18.40;;
7607;SDS011;3845;48.120;11.534;2022-12-18T04:26:24;32.03;;;18.57;;
7607;SDS011;3845;48.120;11.534;2022-12-18T04:28:49;31.23;;;17.87;;
7607;SDS011;3845;48.120;11.534;2022-12-18T04:31:14;28.97;;;16.63;;
7607;SDS011;3845;48.120;11.534;2022-12-18T04:33:39;29.37;;;17.30;;
7607;SDS011;3845;48.120;11.534;2022-12-18T04:36:05;26.47;;;16.40;;
7607;SDS011;3845;48.120;11.534;2022-12-18T04:38:30;27.60;;;16.90;;
7607;SDS011;3845;48.120;11.534;2022-12-18T04:40:56;29.33;;;17.40;;
7607;SDS011;3845;48.120;11.534;2022-12-18T04:43:21;28.63;;;16.53;;
7607;SDS011;3845;48.120;11.534;2022-12-18T04:45:46;28.80;;;16.97;;
7607;SDS011;3845;48.120;11.534;2022-12-18T04:48:11;27.43;;;15.97;;
7607;SDS011;3845;48.120;11.534;2022-12-18T04:50:37;27.57;;;16.07;;
7607;SDS011;3845;48.120;11.534;2022-12-18T04:53:02;26.63;;;16.17;;
7607;SDS011;3845;48.120;11.534;2022-12-18T04:55:27;25.47;;;15.90;;
7607;SDS011;3845;48.120;11.534;2022-12-18T04:57:53;24.70;;;15.53;;
7607;SDS011;3845;48.120;11.534;2022-12-18T05:00:18;26.80;;;16.20;;
7607;SDS011;3845;48.120;11.534;2022-12-18T05:02:44;30.20;;;17.77;;
7607;SDS011;3845;48.120;11.534;2022-12-18T05:05:09;30.73;;;18.13;;
7607;SDS011;3845;48.120;11.534;2022-12-18T05:07:35;28.77;;;17.73;;
7607;SDS011;3845;48.120;11.534;2022-12-18T05:10:00;27.80;;;16.53;;
7607;SDS011;3845;48.120;11.534;2022-12-18T05:12:25;27.50;;;16.43;;
7607;SDS011;3845;48.120;11.534;2022-12-18T05:14:51;27.43;;;16.57;;
7607;SDS011;3845;48.120;11.534;2022-12-18T05:17:16;25.73;;;15.93;;
7607;SDS011;3845;48.120;11.534;2022-12-18T05:19:42;26.87;;;16.47;;
7607;SDS011;3845;48.120;11.534;2022-12-18T05:22:07;25.00;;;15.67;;
7607;SDS011;3845;48.120;11.534;2022-12-18T05:24:33;25.17;;;16.20;;
7607;SDS011;3845;48.120;11.534;2022-12-18T05:26:58;28.60;;;16.77;;
7607;SDS011;3845;48.120;11.534;2022-12-18T05:29:24;25.93;;;15.23;;
7607;SDS011;3845;48.120;11.534;2022-12-18T05:31:49;25.70;;;14.97;;
7607;SDS011;3845;48.120;11.534;2022-12-18T05:34:14;24.83;;;14.93;;
7607;SDS011;3845;48.120;11.534;2022-12-18T05:36:40;22.80;;;14.00;;
7607;SDS011;3845;48.120;11.534;2022-12-18T05:39:05;24.57;;;14.87;;
7607;SDS011;3845;48.120;11.534;2022-12-18T05:41:31;21.73;;;13.43;;
7607;SDS011;3845;48.120;11.534;2022-12-18T05:43:56;25.40;;;15.60;;
7607;SDS011;3845;48.120;11.534;2022-12-18T05:46:21;25.53;;;15.57;;
7607;SDS011;3845;48.120;11.534;2022-12-18T05:48:46;25.57;;;16.10;;
7607;SDS011;3845;48.120;11.534;2022-12-18T05:51:14;26.53;;;16.07;;
7607;SDS011;3845;48.120;11.534;2022-12-18T05:53:40;24.90;;;15.30;;
7607;SDS011;3845;48.120;11.534;2022-12-18T05:56:07;24.83;;;14.60;;
7607;SDS011;3845;48.120;11.534;2022-12-18T05:58:35;27.07;;;15.27;;
7607;SDS011;3845;48.120;11.534;2022-12-18T06:03:39;23.60;;;14.00;;
7607;SDS011;3845;48.120;11.534;2022-12-18T06:06:12;23.17;;;13.87;;
7607;SDS011;3845;48.120;11.534;2022-12-18T06:08:41;23.07;;;13.87;;
7607;SDS011;3845;48.120;11.534;2022-12-18T06:11:06;22.80;;;13.87;;
7607;SDS011;3845;48.120;11.534;2022-12-18T06:13:32;27.33;;;16.13;;
7607;SDS011;3845;48.120;11.534;2022-12-18T06:15:57;25.93;;;16.57;;
7607;SDS011;3845;48.120;11.534;2022-12-18T06:18:22;28.30;;;17.73;;
7607;SDS011;3845;48.120;11.534;2022-12-18T06:20:54;29.37;;;17.13;;
7607;SDS011;3845;48.120;11.534;2022-12-18T06:23:21;25.57;;;15.47;;
7607;SDS011;3845;48.120;11.534;2022-12-18T06:25:46;25.80;;;15.97;;
7607;SDS011;3845;48.120;11.534;2022-12-18T06:28:11;23.97;;;15.17;;
7607;SDS011;3845;48.120;11.534;2022-12-18T06:30:36;27.73;;;16.13;;
7607;SDS011;3845;48.120;11.534;2022-12-18T06:33:02;23.57;;;14.20;;
7607;SDS011;3845;48.120;11.534;2022-12-18T06:35:27;23.27;;;14.37;;
7607;SDS011;3845;48.120;11.534;2022-12-18T06:37:52;21.53;;;13.47;;
7607;SDS011;3845;48.120;11.534;2022-12-18T06:40:17;24.27;;;14.17;;
7607;SDS011;3845;48.120;11.534;2022-12-18T06:42:43;23.50;;;14.27;;
7607;SDS011;3845;48.120;11.534;2022-12-18T06:45:08;20.97;;;13.63;;
7607;SDS011;3845;48.120;11.534;2022-12-18T06:47:35;27.13;;;15.80;;
7607;SDS011;3845;48.120;11.534;2022-12-18T06:50:00;23.10;;;14.40;;
7607;SDS011;3845;48.120;11.534;2022-12-18T06:52:26;23.77;;;14.43;;
7607;SDS011;3845;48.120;11.534;2022-12-18T06:54:51;23.20;;;14.30;;
7607;SDS011;3845;48.120;11.534;2022-12-18T06:57:16;22.80;;;13.80;;
7607;SDS011;3845;48.120;11.534;2022-12-18T06:59:41;24.67;;;15.53;;
7607;SDS011;3845;48.120;11.534;2022-12-18T07:02:10;23.13;;;14.60;;
7607;SDS011;3845;48.120;11.534;2022-12-18T07:04:36;24.57;;;14.97;;
7607;SDS011;3845;48.120;11.534;2022-12-18T07:07:01;25.03;;;14.70;;
7607;SDS011;3845;48.120;11.534;2022-12-18T07:09:27;23.83;;;14.50;;
7607;SDS011;3845;48.120;11.534;2022-12-18T07:11:52;26.00;;;15.13;;
7607;SDS011;3845;48.120;11.534;2022-12-18T07:14:17;25.23;;;15.13;;
7607;SDS011;3845;48.120;11.534;2022-12-18T07:16:43;25.47;;;15.43;;
7607;SDS011;3845;48.120;11.534;2022-12-18T07:19:08;22.47;;;14.20;;
7607;SDS011;3845;48.120;11.534;2022-12-18T07:21:33;24.00;;;14.63;;
7607;SDS011;3845;48.120;11.534;2022-12-18T07:23:58;22.53;;;14.23;;
7607;SDS011;3845;48.120;11.534;2022-12-18T07:26:24;23.73;;;13.77;;
7607;SDS011;3845;48.120;11.534;2022-12-18T07:28:49;22.67;;;13.90;;
7607;SDS011;3845;48.120;11.534;2022-12-18T07:31:19;19.50;;;13.13;;
7607;SDS011;3845;48.120;11.534;2022-12-18T07:33:45;23.83;;;14.83;;
7607;SDS011;3845;48.120;11.534;2022-12-18T07:36:11;20.90;;;12.87;;
7607;SDS011;3845;48.120;11.534;2022-12-18T07:38:38;25.70;;;15.23;;
7607;SDS011;3845;48.120;11.534;2022-12-18T07:41:07;25.10;;;15.60;;
7607;SDS011;3845;48.120;11.534;2022-12-18T07:43:34;25.43;;;15.00;;
7607;SDS011;3845;48.120;11.534;2022-12-18T07:45:59;26.10;;;15.47;;
7607;SDS011;3845;48.120;11.534;2022-12-18T07:48:25;24.67;;;15.37;;
7607;SDS011;3845;48.120;11.534;2022-12-18T07:50:50;24.67;;;15.27;;
7607;SDS011;3845;48.120;11.534;2022-12-18T07:53:15;25.63;;;15.03;;
7607;SDS011;3845;48.120;11.534;2022-12-18T07:55:41;23.70;;;14.50;;
7607;SDS011;3845;48.120;11.534;2022-12-18T07:58:07;23.87;;;14.50;;
7607;SDS011;3845;48.120;11.534;2022-12-18T08:00:32;22.63;;;14.10;;
7607;SDS011;3845;48.120;11.534;2022-12-18T08:02:58;25.63;;;14.37;;
7607;SDS011;3845;48.120;11.534;2022-12-18T08:05:23;24.43;;;14.87;;
7607;SDS011;3845;48.120;11.534;2022-12-18T08:07:48;26.20;;;14.67;;
7607;SDS011;3845;48.120;11.534;2022-12-18T08:10:14;23.87;;;14.50;;
7607;SDS011;3845;48.120;11.534;2022-12-18T08:12:39;24.93;;;14.70;;
7607;SDS011;3845;48.120;11.534;2022-12-18T08:15:05;25.33;;;15.33;;
7607;SDS011;3845;48.120;11.534;2022-12-18T08:17:30;25.23;;;15.07;;
7607;SDS011;3845;48.120;11.534;2022-12-18T08:19:56;26.07;;;14.40;;
7607;SDS011;3845;48.120;11.534;2022-12-18T08:22:21;24.73;;;14.67;;
7607;SDS011;3845;48.120;11.534;2022-12-18T08:24:46;21.93;;;12.90;;
7607;SDS011;3845;48.120;11.534;2022-12-18T08:27:12;20.63;;;13.23;;
7607;SDS011;3845;48.120;11.534;2022-12-18T08:29:37;23.57;;;13.73;;
7607;SDS011;3845;48.120;11.534;2022-12-18T08:32:03;25.30;;;14.80;;
7607;SDS011;3845;48.120;11.534;2022-12-18T08:34:28;24.60;;;14.10;;
7607;SDS011;3845;48.120;11.534;2022-12-18T08:36:53;23.60;;;13.77;;
7607;SDS011;3845;48.120;11.534;2022-12-18T08:39:19;23.73;;;13.97;;
7607;SDS011;3845;48.120;11.534;2022-12-18T08:41:44;22.30;;;13.23;;
7607;SDS011;3845;48.120;11.534;2022-12-18T08:44:29;24.33;;;13.90;;
7607;SDS011;3845;48.120;11.534;2022-12-18T08:47:04;21.43;;;12.90;;
7607;SDS011;3845;48.120;11.534;2022-12-18T08:49:30;22.23;;;13.17;;
7607;SDS011;3845;48.120;11.534;2022-12-18T08:51:56;21.73;;;13.03;;
7607;SDS011;3845;48.120;11.534;2022-12-18T08:54:24;20.10;;;12.63;;
7607;SDS011;3845;48.120;11.534;2022-12-18T08:56:50;24.20;;;14.37;;
7607;SDS011;3845;48.120;11.534;2022-12-18T08:59:16;23.40;;;14.43;;
7607;SDS011;3845;48.120;11.534;2022-12-18T09:01:42;22.00;;;13.83;;
7607;SDS011;3845;48.120;11.534;2022-12-18T09:04:08;22.40;;;13.77;;
7607;SDS011;3845;48.120;11.534;2022-12-18T09:06:34;22.60;;;13.23;;
7607;SDS011;3845;48.120;11.534;2022-12-18T09:08:59;25.00;;;14.37;;
7607;SDS011;3845;48.120;11.534;2022-12-18T09:11:25;24.53;;;14.17;;
7607;SDS011;3845;48.120;11.534;2022-12-18T09:13:52;23.00;;;13.90;;
7607;SDS011;3845;48.120;11.534;2022-12-18T09:16:18;23.77;;;14.63;;
7607;SDS011;3845;48.120;11.534;2022-12-18T09:18:45;20.80;;;13.47;;
7607;SDS011;3845;48.120;11.534;2022-12-18T09:21:14;20.60;;;12.57;;
7607;SDS011;3845;48.120;11.534;2022-12-18T09:23:41;24.47;;;14.23;;
7607;SDS011;3845;48.120;11.534;2022-12-18T09:26:06;24.00;;;14.17;;
7607;SDS011;3845;48.120;11.534;2022-12-18T09:28:32;23.50;;;14.10;;
7607;SDS011;3845;48.120;11.534;2022-12-18T09:30:57;24.60;;;14.47;;
7607;SDS011;3845;48.120;11.534;2022-12-18T09:33:23;29.70;;;18.10;;
7607;SDS011;3845;48.120;11.534;2022-12-18T09:35:48;35.73;;;20.87;;
7607;SDS011;3845;48.120;11.534;2022-12-18T09:38:14;28.20;;;17.33;;
7607;SDS011;3845;48.120;11.534;2022-12-18T09:40:53;27.77;;;17.30;;
7607;SDS011;3845;48.120;11.534;2022-12-18T09:43:26;26.47;;;16.07;;
7607;SDS011;3845;48.120;11.534;2022-12-18T09:45:59;24.97;;;14.70;;
7607;SDS011;3845;48.120;11.534;2022-12-18T09:48:37;22.50;;;13.90;;
7607;SDS011;3845;48.120;11.534;2022-12-18T09:51:11;24.73;;;13.60;;
7607;SDS011;3845;48.120;11.534;2022-12-18T09:53:40;20.97;;;12.80;;
7607;SDS011;3845;48.120;11.534;2022-12-18T09:56:06;22.40;;;13.43;;
7607;SDS011;3845;48.120;11.534;2022-12-18T09:58:41;23.07;;;13.70;;
7607;SDS011;3845;48.120;11.534;2022-12-18T10:01:14;24.60;;;13.03;;
7607;SDS011;3845;48.120;11.534;2022-12-18T10:03:41;21.97;;;12.70;;
7607;SDS011;3845;48.120;11.534;2022-12-18T10:06:08;19.70;;;12.43;;
7607;SDS011;3845;48.120;11.534;2022-12-18T10:08:42;21.10;;;12.67;;
7607;SDS011;3845;48.120;11.534;2022-12-18T10:13:42;18.70;;;11.93;;
7607;SDS011;3845;48.120;11.534;2022-12-18T10:16:17;18.37;;;11.83;;
7607;SDS011;3845;48.120;11.534;2022-12-18T10:18:59;28.23;;;17.83;;
7607;SDS011;3845;48.120;11.534;2022-12-18T10:24:28;35.20;;;21.23;;
7607;SDS011;3845;48.120;11.534;2022-12-18T10:26:59;28.63;;;18.53;;
7607;SDS011;3845;48.120;11.534;2022-12-18T10:29:34;30.13;;;17.33;;
7607;SDS011;3845;48.120;11.534;2022-12-18T10:32:00;25.90;;;15.43;;
7607;SDS011;3845;48.120;11.534;2022-12-18T10:34:25;24.40;;;15.10;;
7607;SDS011;3845;48.120;11.534;2022-12-18T10:36:50;25.13;;;15.00;;
7607;SDS011;3845;48.120;11.534;2022-12-18T10:41:42;19.80;;;12.60;;
7607;SDS011;3845;48.120;11.534;2022-12-18T10:46:36;18.63;;;12.00;;
7607;SDS011;3845;48.120;11.534;2022-12-18T10:49:01;22.30;;;13.43;;
7607;SDS011;3845;48.120;11.534;2022-12-18T10:51:31;21.30;;;12.87;;
7607;SDS011;3845;48.120;11.534;2022-12-18T10:54:13;21.27;;;12.93;;
7607;SDS011;3845;48.120;11.534;2022-12-18T10:56:40;19.80;;;12.87;;
7607;SDS011;3845;48.120;11.534;2022-12-18T10:59:07;21.33;;;13.33;;
7607;SDS011;3845;48.120;11.534;2022-12-18T11:01:55;18.97;;;11.97;;
7607;SDS011;3845;48.120;11.534;2022-12-18T11:04:23;18.93;;;11.70;;
7607;SDS011;3845;48.120;11.534;2022-12-18T11:06:52;19.53;;;12.13;;
7607;SDS011;3845;48.120;11.534;2022-12-18T11:09:25;18.67;;;11.90;;
7607;SDS011;3845;48.120;11.534;2022-12-18T11:11:58;17.43;;;11.50;;
7607;SDS011;3845;48.120;11.534;2022-12-18T11:14:26;17.70;;;11.63;;
7607;SDS011;3845;48.120;11.534;2022-12-18T11:16:55;18.33;;;11.50;;
7607;SDS011;3845;48.120;11.534;2022-12-18T11:19:26;18.70;;;12.40;;
7607;SDS011;3845;48.120;11.534;2022-12-18T11:21:55;19.10;;;11.47;;
7607;SDS011;3845;48.120;11.534;2022-12-18T11:26:49;18.03;;;11.37;;
7607;SDS011;3845;48.120;11.534;2022-12-18T11:29:18;17.27;;;11.33;;
7607;SDS011;3845;48.120;11.534;2022-12-18T11:31:48;18.00;;;11.57;;
7607;SDS011;3845;48.120;11.534;2022-12-18T11:34:16;19.27;;;12.53;;
7607;SDS011;3845;48.120;11.534;2022-12-18T11:36:45;20.77;;;12.50;;
7607;SDS011;3845;48.120;11.534;2022-12-18T11:44:42;40.03;;;23.40;;
7607;SDS011;3845;48.120;11.534;2022-12-18T11:47:19;32.97;;;19.53;;
7607;SDS011;3845;48.120;11.534;2022-12-18T11:49:50;26.63;;;16.70;;
7607;SDS011;3845;48.120;11.534;2022-12-18T11:52:34;23.90;;;14.73;;
7607;SDS011;3845;48.120;11.534;2022-12-18T11:55:16;22.43;;;14.57;;
7607;SDS011;3845;48.120;11.534;2022-12-18T12:00:20;18.93;;;12.13;;
7607;SDS011;3845;48.120;11.534;2022-12-18T12:16:17;19.17;;;11.87;;
7607;SDS011;3845;48.120;11.534;2022-12-18T12:21:40;18.57;;;11.77;;
7607;SDS011;3845;48.120;11.534;2022-12-18T12:35:08;18.33;;;11.80;;
7607;SDS011;3845;48.120;11.534;2022-12-18T12:40:51;20.40;;;12.97;;
7607;SDS011;3845;48.120;11.534;2022-12-18T12:43:29;21.13;;;13.07;;
7607;SDS011;3845;48.120;11.534;2022-12-18T12:48:51;22.00;;;13.23;;
7607;SDS011;3845;48.120;11.534;2022-12-18T12:53:50;21.53;;;13.40;;
7607;SDS011;3845;48.120;11.534;2022-12-18T12:56:18;19.37;;;12.00;;
7607;SDS011;3845;48.120;11.534;2022-12-18T12:58:46;20.00;;;12.93;;
7607;SDS011;3845;48.120;11.534;2022-12-18T13:06:50;19.97;;;12.50;;
7607;SDS011;3845;48.120;11.534;2022-12-18T13:09:18;20.27;;;12.53;;
7607;SDS011;3845;48.120;11.534;2022-12-18T13:11:44;21.43;;;13.50;;
7607;SDS011;3845;48.120;11.534;2022-12-18T13:14:36;23.53;;;14.03;;
7607;SDS011;3845;48.120;11.534;2022-12-18T13:19:49;20.97;;;13.63;;
7607;SDS011;3845;48.120;11.534;2022-12-18T13:22:22;21.10;;;13.23;;
7607;SDS011;3845;48.120;11.534;2022-12-18T13:24:49;23.60;;;13.77;;
7607;SDS011;3845;48.120;11.534;2022-12-18T13:35:55;19.00;;;11.40;;
7607;SDS011;3845;48.120;11.534;2022-12-18T13:40:57;20.77;;;12.83;;
7607;SDS011;3845;48.120;11.534;2022-12-18T13:46:43;21.57;;;12.83;;
7607;SDS011;3845;48.120;11.534;2022-12-18T13:51:39;21.70;;;13.43;;
7607;SDS011;3845;48.120;11.534;2022-12-18T13:54:13;25.00;;;14.87;;
7607;SDS011;3845;48.120;11.534;2022-12-18T13:56:55;22.10;;;13.47;;
7607;SDS011;3845;48.120;11.534;2022-12-18T13:59:24;22.87;;;13.13;;
7607;SDS011;3845;48.120;11.534;2022-12-18T14:01:52;20.37;;;12.60;;
7607;SDS011;3845;48.120;11.534;2022-12-18T14:06:49;19.77;;;12.23;;
7607;SDS011;3845;48.120;11.534;2022-12-18T14:09:17;17.53;;;11.00;;
7607;SDS011;3845;48.120;11.534;2022-12-18T14:11:47;21.33;;;11.80;;
7607;SDS011;3845;48.120;11.534;2022-12-18T14:14:14;19.00;;;11.20;;
7607;SDS011;3845;48.120;11.534;2022-12-18T14:16:41;19.53;;;11.43;;
7607;SDS011;3845;48.120;11.534;2022-12-18T14:19:08;16.83;;;10.53;;
7607;SDS011;3845;48.120;11.534;2022-12-18T14:21:37;18.10;;;10.50;;
7607;SDS011;3845;48.120;11.534;2022-12-18T14:24:03;20.17;;;11.53;;
7607;SDS011;3845;48.120;11.534;2022-12-18T14:26:31;18.33;;;11.17;;
7607;SDS011;3845;48.120;11.534;2022-12-18T14:28:58;18.90;;;11.33;;
7607;SDS011;3845;48.120;11.534;2022-12-18T14:31:29;17.13;;;10.80;;
7607;SDS011;3845;48.120;11.534;2022-12-18T14:33:55;18.90;;;11.17;;
7607;SDS011;3845;48.120;11.534;2022-12-18T14:36:22;19.07;;;11.13;;
7607;SDS011;3845;48.120;11.534;2022-12-18T14:38:50;20.73;;;11.40;;
7607;SDS011;3845;48.120;11.534;2022-12-18T14:41:18;18.00;;;10.57;;
7607;SDS011;3845;48.120;11.534;2022-12-18T14:43:45;18.23;;;10.47;;
7607;SDS011;3845;48.120;11.534;2022-12-18T14:48:57;16.10;;;10.13;;
7607;SDS011;3845;48.120;11.534;2022-12-18T14:51:24;21.27;;;11.60;;
7607;SDS011;3845;48.120;11.534;2022-12-18T14:54:04;19.10;;;11.37;;
7607;SDS011;3845;48.120;11.534;2022-12-18T14:56:36;32.73;;;18.63;;
7607;SDS011;3845;48.120;11.534;2022-12-18T14:59:15;29.63;;;17.20;;
7607;SDS011;3845;48.120;11.534;2022-12-18T15:02:42;28.07;;;16.87;;
7607;SDS011;3845;48.120;11.534;2022-12-18T15:04:46;25.23;;;15.23;;
7607;SDS011;3845;48.120;11.534;2022-12-18T15:10:31;22.93;;;13.13;;
7607;SDS011;3845;48.120;11.534;2022-12-18T15:12:50;19.30;;;12.17;;
7607;SDS011;3845;48.120;11.534;2022-12-18T15:20:33;19.57;;;11.53;;
7607;SDS011;3845;48.120;11.534;2022-12-18T15:23:11;19.30;;;12.07;;
7607;SDS011;3845;48.120;11.534;2022-12-18T15:25:48;19.97;;;11.43;;
7607;SDS011;3845;48.120;11.534;2022-12-18T15:28:23;20.47;;;11.70;;
7607;SDS011;3845;48.120;11.534;2022-12-18T15:30:57;17.90;;;11.53;;
7607;SDS011;3845;48.120;11.534;2022-12-18T15:33:34;20.70;;;12.17;;
7607;SDS011;3845;48.120;11.534;2022-12-18T15:36:03;19.47;;;12.13;;
7607;SDS011;3845;48.120;11.534;2022-12-18T15:38:30;19.00;;;11.67;;
7607;SDS011;3845;48.120;11.534;2022-12-18T15:40:56;19.73;;;11.70;;
7607;SDS011;3845;48.120;11.534;2022-12-18T15:43:22;21.03;;;12.23;;
7607;SDS011;3845;48.120;11.534;2022-12-18T15:46:02;19.70;;;11.80;;
7607;SDS011;3845;48.120;11.534;2022-12-18T15:48:39;27.03;;;15.53;;
7607;SDS011;3845;48.120;11.534;2022-12-18T15:53:43;51.03;;;28.30;;
7607;SDS011;3845;48.120;11.534;2022-12-18T15:56:12;37.93;;;22.70;;
7607;SDS011;3845;48.120;11.534;2022-12-18T15:58:57;29.83;;;19.67;;
7607;SDS011;3845;48.120;11.534;2022-12-18T16:01:23;27.63;;;16.97;;
7607;SDS011;3845;48.120;11.534;2022-12-18T16:03:49;24.03;;;15.60;;
7607;SDS011;3845;48.120;11.534;2022-12-18T16:06:14;23.40;;;14.60;;
7607;SDS011;3845;48.120;11.534;2022-12-18T16:08:40;21.80;;;13.90;;
7607;SDS011;3845;48.120;11.534;2022-12-18T16:11:05;21.73;;;13.60;;
7607;SDS011;3845;48.120;11.534;2022-12-18T16:13:30;21.80;;;13.43;;
7607;SDS011;3845;48.120;11.534;2022-12-18T16:15:56;21.43;;;12.83;;
7607;SDS011;3845;48.120;11.534;2022-12-18T16:18:21;20.90;;;12.63;;
7607;SDS011;3845;48.120;11.534;2022-12-18T16:20:46;23.70;;;13.40;;
7607;SDS011;3845;48.120;11.534;2022-12-18T16:23:12;21.03;;;12.20;;
7607;SDS011;3845;48.120;11.534;2022-12-18T16:25:37;22.33;;;12.27;;
7607;SDS011;3845;48.120;11.534;2022-12-18T16:28:02;21.07;;;12.63;;
7607;SDS011;3845;48.120;11.534;2022-12-18T16:30:28;24.17;;;12.97;;
7607;SDS011;3845;48.120;11.534;2022-12-18T16:32:55;23.43;;;12.97;;
7607;SDS011;3845;48.120;11.534;2022-12-18T16:35:21;22.23;;;13.27;;
7607;SDS011;3845;48.120;11.534;2022-12-18T16:37:46;22.87;;;13.40;;
7607;SDS011;3845;48.120;11.534;2022-12-18T16:40:13;18.23;;;11.70;;
7607;SDS011;3845;48.120;11.534;2022-12-18T16:42:40;20.20;;;12.53;;
7607;SDS011;3845;48.120;11.534;2022-12-18T16:45:08;20.47;;;12.43;;
7607;SDS011;3845;48.120;11.534;2022-12-18T16:47:34;21.37;;;12.80;;
7607;SDS011;3845;48.120;11.534;2022-12-18T16:49:59;18.20;;;11.33;;
7607;SDS011;3845;48.120;11.534;2022-12-18T16:52:25;19.53;;;11.73;;
7607;SDS011;3845;48.120;11.534;2022-12-18T16:54:50;22.43;;;13.77;;
7607;SDS011;3845;48.120;11.534;2022-12-18T16:57:16;18.67;;;12.13;;
7607;SDS011;3845;48.120;11.534;2022-12-18T16:59:42;21.43;;;12.63;;